createdAt,value
2022-09-17T00:01:25.221Z,99912.34
2022-09-17T00:03:57.110Z,99968.88
2022-09-17T00:06:25.318Z,99971.16
2022-09-17T00:08:53.685Z,99976.28
2022-09-17T00:11:31.355Z,99968.88
2022-09-17T00:14:00.534Z,99958.56
2022-09-17T00:16:33.215Z,99967.47
2022-09-17T00:19:00.559Z,99961.72
2022-09-17T00:21:27.672Z,99961.34
2022-09-17T00:23:59.422Z,99959.28
2022-09-17T00:26:26.884Z,99966.72
2022-09-17T00:28:54.835Z,99959.53
2022-09-17T00:31:22.716Z,99902.00
2022-09-17T00:33:49.472Z,99960.19
2022-09-17T00:36:16.227Z,99962.88
2022-09-17T00:38:43.383Z,99960.19
2022-09-17T00:41:09.978Z,99964.31
2022-09-17T00:43:36.279Z,99959.16
2022-09-17T00:46:04.879Z,99954.59
2022-09-17T00:48:31.559Z,99956.03
2022-09-17T00:51:01.403Z,99962.88
2022-09-17T00:53:28.626Z,99906.09
2022-09-17T00:56:04.690Z,99961.84
2022-09-17T00:58:35.844Z,99964.88
2022-09-17T01:01:05.954Z,99965.53
2022-09-17T01:03:33.321Z,99960.56
2022-09-17T01:06:25.477Z,99965.09
2022-09-17T01:09:14.098Z,99964.41
2022-09-17T01:11:55.726Z,99972.78
2022-09-17T01:14:30.971Z,99980.38
2022-09-17T01:17:12.333Z,99980.13
2022-09-17T01:20:12.588Z,99978.28
2022-09-17T01:22:45.038Z,99986.28
2022-09-17T01:25:25.448Z,99994.69
2022-09-17T01:28:20.817Z,99985.41
2022-09-17T01:31:04.985Z,99993.63
2022-09-17T01:34:01.587Z,99989.53
2022-09-17T01:36:54.081Z,99994.06
2022-09-17T01:39:46.994Z,99995.22
2022-09-17T01:42:26.007Z,99988.78
2022-09-17T01:45:00.520Z,100007.06
2022-09-17T01:47:50.306Z,99981.06
2022-09-17T01:50:23.378Z,99984.44
2022-09-17T01:52:53.230Z,99988.72
2022-09-17T01:55:22.601Z,99985.03
2022-09-17T01:57:59.654Z,99990.00
2022-09-17T02:00:27.366Z,100015.28
2022-09-17T02:03:04.177Z,99985.53
2022-09-17T02:05:41.590Z,99983.50
2022-09-17T02:08:41.582Z,99994.06
2022-09-17T02:11:11.525Z,99985.53
2022-09-17T02:13:47.606Z,99951.94
2022-09-17T02:16:19.678Z,99995.34
2022-09-17T02:19:06.778Z,99992.06
2022-09-17T02:21:58.242Z,99969.78
2022-09-17T02:24:31.123Z,99998.19
2022-09-17T02:27:07.019Z,99998.44
2022-09-17T02:29:36.781Z,99999.63
2022-09-17T02:32:04.241Z,99994.75
2022-09-17T02:34:30.907Z,99995.19
2022-09-17T02:37:01.269Z,99996.22
2022-09-17T02:39:28.296Z,99997.84
2022-09-17T02:42:22.302Z,100007.09
2022-09-17T02:45:07.135Z,100006.47
2022-09-17T02:47:52.099Z,100008.94
2022-09-17T02:50:30.499Z,100006.47
2022-09-17T02:53:18.662Z,100008.28
2022-09-17T02:56:00.362Z,100003.34
2022-09-17T02:58:41.251Z,99995.59
2022-09-17T03:01:21.772Z,100001.13
2022-09-17T03:03:51.176Z,100015.91
2022-09-17T03:06:18.629Z,99911.34
2022-09-17T03:08:47.495Z,99992.91
2022-09-17T03:11:14.606Z,100004.03
2022-09-17T03:13:41.514Z,100010.19
2022-09-17T03:16:08.111Z,100001.56
2022-09-17T03:18:34.728Z,100018.84
2022-09-17T03:21:01.089Z,100003.88
2022-09-17T03:23:28.014Z,100007.97
2022-09-17T03:25:55.184Z,100002.06
2022-09-17T03:28:21.755Z,100007.22
2022-09-17T03:30:48.208Z,100002.44
2022-09-17T03:33:14.582Z,100004.28
2022-09-17T03:35:44.787Z,100013.13
2022-09-17T03:38:12.615Z,100011.44
2022-09-17T03:40:40.265Z,100006.75
2022-09-17T03:43:06.997Z,100002.44
2022-09-17T03:45:33.348Z,100004.03
2022-09-17T03:47:59.705Z,100011.81
2022-09-17T03:50:26.500Z,100007.91
2022-09-17T03:52:52.851Z,100007.16
2022-09-17T03:55:19.267Z,100009.16
2022-09-17T03:57:45.643Z,100005.28
2022-09-17T04:00:12.820Z,100015.78
2022-09-17T04:02:39.712Z,100006.75
2022-09-17T04:05:06.848Z,100010.25
2022-09-17T04:07:33.178Z,100005.72
2022-09-17T04:09:59.677Z,100015.41
2022-09-17T04:12:25.985Z,100015.97
2022-09-17T04:14:52.310Z,100018.47
2022-09-17T04:17:19.730Z,100019.28
2022-09-17T04:19:46.080Z,100022.56
2022-09-17T04:22:12.502Z,100019.34
2022-09-17T04:24:38.849Z,100032.50
2022-09-17T04:27:05.273Z,100031.03
2022-09-17T04:29:31.590Z,100025.13
2022-09-17T04:31:57.926Z,100027.59
2022-09-17T04:34:24.255Z,100026.41
2022-09-17T04:36:50.630Z,100015.66
2022-09-17T04:39:17.357Z,100032.69
2022-09-17T04:41:43.665Z,100042.16
2022-09-17T04:44:10.054Z,100032.13
2022-09-17T04:46:36.387Z,100024.72
2022-09-17T04:49:02.958Z,100039.94
2022-09-17T04:51:29.342Z,100038.28
2022-09-17T04:53:55.766Z,100045.47
2022-09-17T04:56:22.083Z,100042.16
2022-09-17T04:58:48.508Z,100044.19
2022-09-17T05:01:15.235Z,100049.34
2022-09-17T05:03:41.609Z,100044.97
2022-09-17T05:06:07.946Z,100051.31
2022-09-17T05:08:34.301Z,100045.53
2022-09-17T05:11:00.714Z,100057.03
2022-09-17T05:13:27.018Z,100057.69
2022-09-17T05:15:56.564Z,100058.69
2022-09-17T05:18:23.403Z,100053.66
2022-09-17T05:20:49.747Z,100051.94
2022-09-17T05:23:16.155Z,100055.19
2022-09-17T05:25:42.507Z,100048.56
2022-09-17T05:28:08.842Z,100048.94
2022-09-17T05:30:35.338Z,100045.66
2022-09-17T05:33:03.627Z,100053.84
2022-09-17T05:35:30.575Z,100068.19
2022-09-17T05:37:58.995Z,100065.31
2022-09-17T05:40:26.117Z,100011.81
2022-09-17T05:42:52.614Z,100062.03
2022-09-17T05:45:18.952Z,100067.25
2022-09-17T05:47:45.439Z,100068.72
2022-09-17T05:50:11.814Z,100070.19
2022-09-17T05:52:38.131Z,100018.94
2022-09-17T05:55:04.795Z,100077.59
2022-09-17T05:57:31.142Z,100091.78
2022-09-17T05:59:57.472Z,100088.94
2022-09-17T06:02:23.823Z,100091.28
2022-09-17T06:04:50.442Z,100099.72
2022-09-17T06:07:16.747Z,100098.63
2022-09-17T06:09:43.063Z,100100.50
2022-09-17T06:12:09.393Z,100103.50
2022-09-17T06:14:35.723Z,100109.16
2022-09-17T06:17:02.059Z,100108.19
2022-09-17T06:19:28.483Z,100104.56
2022-09-17T06:21:55.526Z,100102.38
2022-09-17T06:24:21.886Z,100101.84
2022-09-17T06:26:48.222Z,100115.72
2022-09-17T06:29:15.207Z,100113.34
2022-09-17T06:31:44.816Z,100118.69
2022-09-17T06:34:11.777Z,100120.28
2022-09-17T06:36:38.153Z,100031.53
2022-09-17T06:39:04.521Z,100116.91
2022-09-17T06:41:30.903Z,100113.34
2022-09-17T06:43:57.431Z,100118.13
2022-09-17T06:46:23.931Z,100111.94
2022-09-17T06:48:50.453Z,100128.16
2022-09-17T06:51:16.838Z,100066.66
2022-09-17T06:53:43.178Z,100128.16
2022-09-17T06:56:10.012Z,100131.03
2022-09-17T06:58:41.922Z,100138.41
2022-09-17T07:01:10.169Z,100137.63
2022-09-17T07:03:37.362Z,100134.16
2022-09-17T07:06:05.089Z,100134.53
2022-09-17T07:08:34.465Z,100135.94
2022-09-17T07:11:00.966Z,100144.78
2022-09-17T07:13:27.438Z,100081.13
2022-09-17T07:15:58.967Z,100133.81
2022-09-17T07:18:26.356Z,100121.63
2022-09-17T07:20:55.140Z,100141.97
2022-09-17T07:23:26.974Z,100141.78
2022-09-17T07:25:58.664Z,100140.91
2022-09-17T07:28:25.866Z,100131.03
2022-09-17T07:30:53.051Z,100123.97
2022-09-17T07:33:24.582Z,100088.59
2022-09-17T07:35:58.330Z,100137.88
2022-09-17T07:38:26.025Z,100141.59
2022-09-17T07:40:58.021Z,100134.81
2022-09-17T07:43:26.422Z,100139.22
2022-09-17T07:45:53.776Z,100128.75
2022-09-17T07:48:21.264Z,100133.31
2022-09-17T07:50:47.710Z,100131.28
2022-09-17T07:53:14.472Z,100128.06
2022-09-17T07:55:41.397Z,100132.16
2022-09-17T07:58:08.039Z,100140.22
2022-09-17T08:00:34.626Z,100133.03
2022-09-17T08:03:01.032Z,100129.56
2022-09-17T08:05:27.897Z,100130.38
2022-09-17T08:07:55.650Z,100129.59
2022-09-17T08:10:22.816Z,100123.59
2022-09-17T08:12:49.834Z,100128.19
2022-09-17T08:15:17.466Z,100126.19
2022-09-17T08:17:44.974Z,100138.16
2022-09-17T08:20:15.600Z,100065.75
2022-09-17T08:22:49.829Z,100131.78
2022-09-17T08:25:16.788Z,100132.03
2022-09-17T08:27:43.178Z,100123.59
2022-09-17T08:30:10.023Z,100118.00
2022-09-17T08:32:36.506Z,100128.31
2022-09-17T08:35:03.347Z,100118.81
2022-09-17T08:37:30.764Z,100106.19
2022-09-17T08:39:58.298Z,100127.84
2022-09-17T08:42:37.256Z,100131.38
2022-09-17T08:45:10.482Z,100135.28
2022-09-17T08:47:43.401Z,100130.31
2022-09-17T08:50:25.935Z,100136.47
2022-09-17T08:53:06.406Z,100131.47
2022-09-17T08:55:40.003Z,100139.44
2022-09-17T08:58:35.170Z,100143.44
2022-09-17T09:01:07.795Z,100126.03
2022-09-17T09:03:53.431Z,100145.13
2022-09-17T09:06:27.125Z,100132.78
2022-09-17T09:09:03.658Z,100130.66
2022-09-17T09:11:31.788Z,100126.47
2022-09-17T09:14:23.567Z,100138.06
2022-09-17T09:16:53.149Z,100117.75
2022-09-17T09:19:22.207Z,100137.31
2022-09-17T09:22:03.670Z,100150.88
2022-09-17T09:25:13.138Z,100148.91
2022-09-17T09:27:50.374Z,100145.72
2022-09-17T09:30:23.643Z,100139.88
2022-09-17T09:33:02.854Z,100136.47
2022-09-17T09:35:35.656Z,100141.53
2022-09-17T09:38:25.936Z,100142.41
2022-09-17T09:41:03.609Z,100141.81
2022-09-17T09:44:02.303Z,100111.84
2022-09-17T09:46:54.713Z,100129.84
2022-09-17T09:49:30.059Z,100140.56
2022-09-17T09:52:05.314Z,100132.50
2022-09-17T09:55:02.470Z,100127.88
2022-09-17T09:57:43.299Z,100121.16
2022-09-17T10:00:26.742Z,100123.75
2022-09-17T10:03:04.106Z,100136.31
2022-09-17T10:05:45.966Z,100125.59
2022-09-17T10:08:20.684Z,100131.28
2022-09-17T10:11:05.607Z,100125.75
2022-09-17T10:13:35.666Z,100120.31
2022-09-17T10:16:27.630Z,100140.72
2022-09-17T10:19:06.415Z,100130.53
2022-09-17T10:21:39.494Z,100129.28
2022-09-17T10:24:30.104Z,100127.22
2022-09-17T10:27:13.154Z,100079.19
2022-09-17T10:29:44.634Z,100123.59
2022-09-17T10:32:19.890Z,100117.63
2022-09-17T10:35:24.198Z,100064.78
2022-09-17T10:37:53.120Z,100113.31
2022-09-17T10:40:19.527Z,100117.00
2022-09-17T10:43:14.217Z,100077.59
2022-09-17T10:45:44.834Z,100116.03
2022-09-17T10:48:18.144Z,100108.56
2022-09-17T10:50:55.681Z,100106.94
2022-09-17T10:53:24.247Z,100110.66
2022-09-17T10:56:09.382Z,100085.44
2022-09-17T10:59:01.974Z,100090.13
2022-09-17T11:01:38.722Z,100041.19
2022-09-17T11:04:25.609Z,100101.97
2022-09-17T11:07:02.894Z,100098.78
2022-09-17T11:09:44.452Z,100091.97
2022-09-17T11:12:36.214Z,100096.75
2022-09-17T11:15:23.542Z,100097.41
2022-09-17T11:18:05.104Z,100096.00
2022-09-17T11:20:53.078Z,100094.19
2022-09-17T11:23:39.396Z,100086.56
2022-09-17T11:26:11.591Z,100094.56
2022-09-17T11:28:53.854Z,100090.78
2022-09-17T11:31:36.310Z,100090.47
2022-09-17T11:34:25.351Z,100044.91
2022-09-17T11:36:59.321Z,100094.63
2022-09-17T11:39:34.182Z,100083.69
2022-09-17T11:42:04.742Z,100081.09
2022-09-17T11:44:42.070Z,100077.03
2022-09-17T11:47:25.124Z,100077.94
2022-09-17T11:50:09.223Z,100080.63
2022-09-17T11:52:41.672Z,100096.16
2022-09-17T11:55:39.790Z,100101.00
2022-09-17T11:58:26.372Z,100119.03
2022-09-17T12:01:01.727Z,100110.78
2022-09-17T12:03:37.261Z,100100.59
2022-09-17T12:06:11.029Z,100107.69
2022-09-17T12:08:48.080Z,100097.19
2022-09-17T12:11:23.789Z,100101.88
2022-09-17T12:13:57.551Z,100102.38
2022-09-17T12:16:36.016Z,100115.75
2022-09-17T12:19:13.870Z,100116.91
2022-09-17T12:21:47.674Z,100122.84
2022-09-17T12:24:25.922Z,100134.66
2022-09-17T12:27:08.189Z,100126.78
2022-09-17T12:30:00.240Z,100113.03
2022-09-17T12:32:37.051Z,100114.94
2022-09-17T12:36:00.179Z,100105.69
2022-09-17T12:38:40.209Z,100062.06
2022-09-17T12:41:28.387Z,100105.47
2022-09-17T12:44:31.383Z,100106.06
2022-09-17T12:47:33.336Z,100099.09
2022-09-17T12:50:19.239Z,100095.41
2022-09-17T12:53:08.606Z,100088.63
2022-09-17T12:55:34.879Z,100089.06
2022-09-17T12:58:07.216Z,100082.38
2022-09-17T13:00:42.698Z,100076.22
2022-09-17T13:03:22.394Z,100073.31
2022-09-17T13:06:06.193Z,100119.63
2022-09-17T13:08:58.644Z,100140.50
2022-09-17T13:11:49.238Z,100117.16
2022-09-17T13:14:29.492Z,100082.09
2022-09-17T13:17:11.234Z,100044.63
2022-09-17T13:19:55.719Z,100077.94
2022-09-17T13:22:27.605Z,100063.56
2022-09-17T13:25:07.459Z,100076.41
2022-09-17T13:27:38.107Z,100076.25
2022-09-17T13:30:09.742Z,100080.00
2022-09-17T13:32:36.024Z,76738.69
2022-09-17T13:35:11.333Z,76724.44
2022-09-17T13:37:53.050Z,76710.16
2022-09-17T13:40:27.517Z,76677.56
2022-09-17T13:42:59.255Z,76638.88
2022-09-17T13:45:26.615Z,76626.66
2022-09-17T13:48:02.201Z,76606.28
2022-09-17T13:50:37.422Z,76567.59
2022-09-17T13:53:12.941Z,76559.44
2022-09-17T13:55:43.814Z,76561.47
2022-09-17T13:58:23.925Z,76561.47
2022-09-17T14:01:05.627Z,76545.16
2022-09-17T14:03:41.633Z,76502.41
2022-09-17T14:06:08.500Z,76490.19
2022-09-17T14:08:44.169Z,76482.03
2022-09-17T14:11:22.700Z,76480.00
2022-09-17T14:13:49.068Z,76488.13
2022-09-17T14:16:46.764Z,76453.50
2022-09-17T14:19:16.196Z,76400.56
2022-09-17T14:21:46.308Z,76361.84
2022-09-17T14:24:34.463Z,76361.84
2022-09-17T14:27:33.376Z,76359.81
2022-09-17T14:30:16.741Z,76380.19
2022-09-17T14:32:53.841Z,76402.59
2022-09-17T14:35:44.614Z,76431.09
2022-09-17T14:38:24.849Z,76488.13
2022-09-17T14:41:05.094Z,76610.34
2022-09-17T14:43:45.560Z,76697.94
2022-09-17T14:46:30.296Z,76716.28
2022-09-17T14:49:23.784Z,76755.00
2022-09-17T14:51:52.113Z,76767.22
2022-09-17T14:54:38.697Z,76744.81
2022-09-17T14:57:26.125Z,76724.44
2022-09-17T14:59:57.511Z,76687.75
2022-09-17T15:02:41.225Z,76687.75
2022-09-17T15:05:33.495Z,76667.41
2022-09-17T15:08:16.807Z,76663.31
2022-09-17T15:10:45.977Z,76655.16
2022-09-17T15:13:16.206Z,76661.28
2022-09-17T15:15:52.361Z,76644.97
2022-09-17T15:18:18.884Z,76647.03
2022-09-17T15:20:48.054Z,76642.94
2022-09-17T15:23:24.075Z,76624.63
2022-09-17T15:25:54.818Z,76612.41
2022-09-17T15:28:43.925Z,76583.88
2022-09-17T15:31:18.151Z,76587.94
2022-09-17T15:33:45.467Z,76590.00
2022-09-17T15:36:23.924Z,76575.72
2022-09-17T15:38:51.463Z,76561.47
2022-09-17T15:41:31.734Z,76549.25
2022-09-17T15:44:28.488Z,76541.09
2022-09-17T15:46:57.533Z,76526.84
2022-09-17T15:49:26.958Z,76535.00
2022-09-17T15:51:53.437Z,76545.16
2022-09-17T15:54:31.612Z,76547.22
2022-09-17T15:57:04.734Z,76532.94
2022-09-17T15:59:34.598Z,76543.13
2022-09-17T16:02:02.156Z,76541.09
2022-09-17T16:04:33.588Z,76532.94
2022-09-17T16:07:16.691Z,76537.03
2022-09-17T16:09:53.354Z,76537.03
2022-09-17T16:12:25.022Z,76528.88
2022-09-17T16:14:53.856Z,76530.91
2022-09-17T16:17:38.207Z,76528.88
2022-09-17T16:20:19.957Z,76528.88
2022-09-17T16:22:48.080Z,76545.16
2022-09-17T16:25:15.090Z,76545.16
2022-09-17T16:27:56.255Z,76541.09
2022-09-17T16:30:24.350Z,76553.31
2022-09-17T16:32:51.526Z,76555.34
2022-09-17T16:35:20.624Z,76553.31
2022-09-17T16:37:51.815Z,76551.28
2022-09-17T16:40:19.270Z,76557.41
2022-09-17T16:42:46.459Z,76549.25
2022-09-17T16:45:12.946Z,76557.41
2022-09-17T16:47:40.989Z,76559.44
2022-09-17T16:50:10.537Z,76565.53
2022-09-17T16:52:37.169Z,76571.66
2022-09-17T16:55:04.389Z,76569.63
2022-09-17T16:57:31.989Z,76596.09
2022-09-17T16:59:58.533Z,76585.91
2022-09-17T17:02:25.447Z,76602.22
2022-09-17T17:04:51.769Z,76608.31
2022-09-17T17:07:18.122Z,76620.53
2022-09-17T17:09:44.470Z,76638.88
2022-09-17T17:12:11.545Z,76661.28
2022-09-17T17:14:37.911Z,76675.53
2022-09-17T17:17:04.660Z,76683.69
2022-09-17T17:19:31.182Z,76691.84
2022-09-17T17:21:57.593Z,76693.88
2022-09-17T17:24:23.965Z,76704.06
2022-09-17T17:26:50.312Z,76718.31
2022-09-17T17:29:16.748Z,76724.44
2022-09-17T17:31:43.220Z,76740.72
2022-09-17T17:34:09.591Z,76746.84
2022-09-17T17:36:35.917Z,76752.94
2022-09-17T17:39:02.357Z,76759.06
2022-09-17T17:41:28.732Z,76789.63
2022-09-17T17:43:57.204Z,76767.22
2022-09-17T17:46:24.196Z,76789.63
2022-09-17T17:48:50.865Z,76777.41
2022-09-17T17:51:20.379Z,76791.66
2022-09-17T17:53:46.807Z,76797.75
2022-09-17T17:56:13.697Z,76801.84
2022-09-17T17:58:40.613Z,76810.00
2022-09-17T18:01:16.603Z,76826.28
2022-09-17T18:03:43.509Z,76834.44
2022-09-17T18:06:10.313Z,76838.50
2022-09-17T18:08:38.237Z,76840.53
2022-09-17T18:11:08.022Z,76846.66
2022-09-17T18:13:35.916Z,76840.53
2022-09-17T18:16:03.654Z,76854.81
2022-09-17T18:18:33.500Z,76840.53
2022-09-17T18:21:02.635Z,76838.50
2022-09-17T18:23:30.248Z,76834.44
2022-09-17T18:25:58.539Z,76832.41
2022-09-17T18:28:26.574Z,76842.56
2022-09-17T18:30:53.141Z,76830.34
2022-09-17T18:33:21.546Z,76836.47
2022-09-17T18:35:48.225Z,76836.47
2022-09-17T18:38:16.084Z,76840.53
2022-09-17T18:40:43.701Z,76846.66
2022-09-17T18:43:10.646Z,76858.88
2022-09-17T18:45:37.228Z,76867.03
2022-09-17T18:48:06.837Z,76875.16
2022-09-17T18:50:34.019Z,76883.31
2022-09-17T18:53:00.524Z,76877.22
2022-09-17T18:55:28.778Z,76879.25
2022-09-17T18:57:55.130Z,76891.47
2022-09-17T19:00:22.687Z,76871.09
2022-09-17T19:02:49.268Z,76860.91
2022-09-17T19:05:17.078Z,76856.84
2022-09-17T19:07:47.404Z,76854.81
2022-09-17T19:10:14.925Z,76850.72
2022-09-17T19:12:42.296Z,76848.69
2022-09-17T19:15:09.918Z,76846.66
2022-09-17T19:17:36.447Z,76844.63
2022-09-17T19:20:04.395Z,76838.50
2022-09-17T19:22:31.318Z,76842.56
2022-09-17T19:24:57.694Z,76840.53
2022-09-17T19:27:24.005Z,76836.47
2022-09-17T19:29:50.374Z,76834.44
2022-09-17T19:32:16.738Z,76826.28
2022-09-17T19:34:43.215Z,76832.41
2022-09-17T19:37:09.646Z,76832.41
2022-09-17T19:39:36.291Z,76836.47
2022-09-17T19:42:02.599Z,76840.53
2022-09-17T19:44:29.586Z,76838.50
2022-09-17T19:46:56.005Z,76848.69
2022-09-17T19:49:22.371Z,76832.41
2022-09-17T19:51:48.706Z,76828.31
2022-09-17T19:54:15.121Z,76830.34
2022-09-17T19:56:41.450Z,76826.28
2022-09-17T19:59:08.352Z,76828.31
2022-09-17T20:01:35.055Z,76820.16
2022-09-17T20:04:01.654Z,76826.28
2022-09-17T20:06:28.141Z,76822.22
2022-09-17T20:08:55.181Z,76810.00
2022-09-17T20:11:23.934Z,76814.06
2022-09-17T20:13:55.698Z,76816.09
2022-09-17T20:16:22.661Z,76814.06
2022-09-17T20:18:49.973Z,76814.06
2022-09-17T20:21:17.686Z,76818.13
2022-09-17T20:23:44.036Z,76822.22
2022-09-17T20:26:12.221Z,76814.06
2022-09-17T20:28:39.669Z,76826.28
2022-09-17T20:31:31.923Z,76826.28
2022-09-17T20:34:00.842Z,76830.34
2022-09-17T20:36:33.461Z,76838.50
2022-09-17T20:39:12.387Z,76824.25
2022-09-17T20:41:46.386Z,76828.31
2022-09-17T20:44:12.708Z,76832.41
2022-09-17T20:46:39.150Z,76838.50
2022-09-17T20:49:05.704Z,76836.47
2022-09-17T20:51:33.776Z,76838.50
2022-09-17T20:54:01.458Z,76848.69
2022-09-17T20:56:31.446Z,76842.56
2022-09-17T20:59:07.581Z,76842.56
2022-09-17T21:01:35.580Z,76848.69
2022-09-17T21:04:03.268Z,76848.69
2022-09-17T21:06:32.067Z,76848.69
2022-09-17T21:09:01.868Z,76852.75
2022-09-17T21:11:29.293Z,76850.72
2022-09-17T21:13:55.651Z,76856.84
2022-09-17T21:16:22.166Z,76848.69
2022-09-17T21:18:48.735Z,76852.75
2022-09-17T21:21:17.285Z,76850.72
2022-09-17T21:23:44.437Z,76846.66
2022-09-17T21:26:16.163Z,76848.69
2022-09-17T21:28:44.443Z,76850.72
2022-09-17T21:31:17.595Z,76852.75
2022-09-17T21:33:45.489Z,76860.91
2022-09-17T21:36:13.131Z,76875.16
2022-09-17T21:38:39.931Z,76869.06
2022-09-17T21:41:14.523Z,76871.09
2022-09-17T21:43:42.370Z,76875.16
2022-09-17T21:46:11.797Z,76875.16
2022-09-17T21:48:52.765Z,76881.28
2022-09-17T21:51:22.522Z,76879.25
2022-09-17T21:53:53.924Z,76877.22
2022-09-17T21:56:21.338Z,76893.50
2022-09-17T21:58:52.173Z,76887.41
2022-09-17T22:01:21.032Z,76887.41
2022-09-17T22:03:48.024Z,76887.41
2022-09-17T22:06:15.913Z,76883.31
2022-09-17T22:08:42.977Z,76901.66
2022-09-17T22:11:20.490Z,76917.94
2022-09-17T22:13:55.424Z,76911.84
2022-09-17T22:16:23.940Z,76928.13
2022-09-17T22:18:51.458Z,76940.38
2022-09-17T22:21:26.998Z,76962.78
2022-09-17T22:23:56.192Z,76964.81
2022-09-17T22:26:24.659Z,76966.84
2022-09-17T22:28:52.085Z,76985.19
2022-09-17T22:31:19.231Z,76970.91
2022-09-17T22:33:47.772Z,76972.97
2022-09-17T22:36:19.413Z,76977.03
2022-09-17T22:38:47.695Z,76975.00
2022-09-17T22:41:17.321Z,76979.06
2022-09-17T22:43:44.119Z,76977.03
2022-09-17T22:46:19.459Z,76968.88
2022-09-17T22:48:46.183Z,76972.97
2022-09-17T22:51:13.827Z,76966.84
2022-09-17T22:53:42.162Z,76972.97
2022-09-17T22:56:12.016Z,76956.66
2022-09-17T22:58:38.661Z,76956.66
2022-09-17T23:01:15.546Z,76948.50
2022-09-17T23:03:43.035Z,76944.44
2022-09-17T23:06:12.162Z,76942.41
2022-09-17T23:08:39.481Z,76940.38
2022-09-17T23:11:07.889Z,76944.44
2022-09-17T23:13:34.906Z,76940.38
2022-09-17T23:16:06.936Z,76936.28
2022-09-17T23:18:34.856Z,76940.38
2022-09-17T23:21:07.080Z,76940.38
2022-09-17T23:23:35.705Z,76944.44
2022-09-17T23:26:04.466Z,76948.50
2022-09-17T23:28:30.834Z,76950.53
2022-09-17T23:30:57.359Z,76946.47
2022-09-17T23:33:23.794Z,76952.59
2022-09-17T23:35:50.147Z,76952.59
2022-09-17T23:38:16.513Z,76950.53
2022-09-17T23:40:42.825Z,76952.59
2022-09-17T23:43:09.162Z,76950.53
2022-09-17T23:45:35.507Z,76952.59
2022-09-17T23:48:02.066Z,76948.50
2022-09-17T23:50:28.530Z,76968.88
2022-09-17T23:52:54.938Z,76948.50
2022-09-17T23:55:21.244Z,76946.47
2022-09-17T23:57:47.655Z,76946.47
